sensor_id;sensor_type;location;lat;lon;timestamp;P1;durP1;ratioP1;P2;durP2;ratioP2
54919;SDS011;63804;53.120;8.764;2022-11-21T00:00:37;22.52;;;13.23;;
54919;SDS011;63804;53.120;8.764;2022-11-21T00:03:03;23.70;;;12.60;;
54919;SDS011;63804;53.120;8.764;2022-11-21T00:05:29;21.98;;;12.25;;
54919;SDS011;63804;53.120;8.764;2022-11-21T00:07:56;22.10;;;12.68;;
54919;SDS011;63804;53.120;8.764;2022-11-21T00:10:29;22.35;;;12.52;;
54919;SDS011;63804;53.120;8.764;2022-11-21T00:12:55;21.48;;;12.82;;
54919;SDS011;63804;53.120;8.764;2022-11-21T00:15:21;21.83;;;12.38;;
54919;SDS011;63804;53.120;8.764;2022-11-21T00:17:49;25.65;;;13.10;;
54919;SDS011;63804;53.120;8.764;2022-11-21T00:20:16;22.13;;;12.52;;
54919;SDS011;63804;53.120;8.764;2022-11-21T00:22:49;21.97;;;12.37;;
54919;SDS011;63804;53.120;8.764;2022-11-21T00:25:15;21.85;;;11.80;;
54919;SDS011;63804;53.120;8.764;2022-11-21T00:27:40;21.40;;;11.88;;
54919;SDS011;63804;53.120;8.764;2022-11-21T00:30:07;21.25;;;12.10;;
54919;SDS011;63804;53.120;8.764;2022-11-21T00:32:34;23.83;;;12.93;;
54919;SDS011;63804;53.120;8.764;2022-11-21T00:35:00;23.50;;;14.15;;
54919;SDS011;63804;53.120;8.764;2022-11-21T00:37:26;22.73;;;11.75;;
54919;SDS011;63804;53.120;8.764;2022-11-21T00:39:52;22.92;;;12.98;;
54919;SDS011;63804;53.120;8.764;2022-11-21T00:42:17;23.73;;;12.57;;
54919;SDS011;63804;53.120;8.764;2022-11-21T00:44:43;23.10;;;12.27;;
54919;SDS011;63804;53.120;8.764;2022-11-21T00:47:09;21.60;;;12.52;;
54919;SDS011;63804;53.120;8.764;2022-11-21T00:49:34;22.63;;;12.93;;
54919;SDS011;63804;53.120;8.764;2022-11-21T00:52:00;23.92;;;12.25;;
54919;SDS011;63804;53.120;8.764;2022-11-21T00:54:26;24.05;;;12.52;;
54919;SDS011;63804;53.120;8.764;2022-11-21T00:56:52;20.98;;;12.02;;
54919;SDS011;63804;53.120;8.764;2022-11-21T00:59:17;20.55;;;11.82;;
54919;SDS011;63804;53.120;8.764;2022-11-21T01:01:43;22.83;;;12.35;;
54919;SDS011;63804;53.120;8.764;2022-11-21T01:04:09;21.92;;;12.30;;
54919;SDS011;63804;53.120;8.764;2022-11-21T01:06:36;20.55;;;11.52;;
54919;SDS011;63804;53.120;8.764;2022-11-21T01:09:02;19.55;;;11.88;;
54919;SDS011;63804;53.120;8.764;2022-11-21T01:11:28;22.15;;;12.30;;
54919;SDS011;63804;53.120;8.764;2022-11-21T01:13:54;24.98;;;12.77;;
54919;SDS011;63804;53.120;8.764;2022-11-21T01:16:21;24.92;;;13.32;;
54919;SDS011;63804;53.120;8.764;2022-11-21T01:18:48;22.63;;;12.65;;
54919;SDS011;63804;53.120;8.764;2022-11-21T01:21:16;24.80;;;12.20;;
54919;SDS011;63804;53.120;8.764;2022-11-21T01:23:43;20.85;;;11.75;;
54919;SDS011;63804;53.120;8.764;2022-11-21T01:26:10;21.77;;;12.02;;
54919;SDS011;63804;53.120;8.764;2022-11-21T01:28:38;19.83;;;11.93;;
54919;SDS011;63804;53.120;8.764;2022-11-21T01:33:34;20.38;;;12.05;;
54919;SDS011;63804;53.120;8.764;2022-11-21T01:36:22;23.88;;;12.60;;
54919;SDS011;63804;53.120;8.764;2022-11-21T01:38:51;22.30;;;12.18;;
54919;SDS011;63804;53.120;8.764;2022-11-21T01:41:20;20.55;;;12.50;;
54919;SDS011;63804;53.120;8.764;2022-11-21T01:43:51;24.25;;;12.98;;
54919;SDS011;63804;53.120;8.764;2022-11-21T01:46:17;22.80;;;12.85;;
54919;SDS011;63804;53.120;8.764;2022-11-21T01:48:48;24.15;;;13.07;;
54919;SDS011;63804;53.120;8.764;2022-11-21T01:53:52;23.52;;;12.27;;
54919;SDS011;63804;53.120;8.764;2022-11-21T01:56:24;21.33;;;12.50;;
54919;SDS011;63804;53.120;8.764;2022-11-21T01:58:50;21.02;;;11.93;;
54919;SDS011;63804;53.120;8.764;2022-11-21T02:01:19;21.48;;;12.13;;
54919;SDS011;63804;53.120;8.764;2022-11-21T02:03:45;21.42;;;12.02;;
54919;SDS011;63804;53.120;8.764;2022-11-21T02:06:12;23.20;;;12.75;;
54919;SDS011;63804;53.120;8.764;2022-11-21T02:08:38;21.00;;;12.10;;
54919;SDS011;63804;53.120;8.764;2022-11-21T02:13:54;22.90;;;12.25;;
54919;SDS011;63804;53.120;8.764;2022-11-21T02:16:21;21.85;;;11.63;;
54919;SDS011;63804;53.120;8.764;2022-11-21T02:18:47;22.25;;;12.38;;
54919;SDS011;63804;53.120;8.764;2022-11-21T02:21:19;21.63;;;11.45;;
54919;SDS011;63804;53.120;8.764;2022-11-21T02:26:35;22.40;;;13.13;;
54919;SDS011;63804;53.120;8.764;2022-11-21T02:29:01;22.88;;;13.23;;
54919;SDS011;63804;53.120;8.764;2022-11-21T02:31:26;21.98;;;11.43;;
54919;SDS011;63804;53.120;8.764;2022-11-21T02:33:52;21.00;;;11.65;;
54919;SDS011;63804;53.120;8.764;2022-11-21T02:39:05;19.52;;;11.50;;
54919;SDS011;63804;53.120;8.764;2022-11-21T02:41:33;21.10;;;11.10;;
54919;SDS011;63804;53.120;8.764;2022-11-21T02:44:03;22.38;;;11.70;;
54919;SDS011;63804;53.120;8.764;2022-11-21T02:46:47;22.23;;;12.20;;
54919;SDS011;63804;53.120;8.764;2022-11-21T02:49:15;20.55;;;12.40;;
54919;SDS011;63804;53.120;8.764;2022-11-21T02:51:46;20.00;;;11.95;;
54919;SDS011;63804;53.120;8.764;2022-11-21T02:54:12;23.13;;;12.50;;
54919;SDS011;63804;53.120;8.764;2022-11-21T02:56:38;20.10;;;11.43;;
54919;SDS011;63804;53.120;8.764;2022-11-21T02:59:04;20.67;;;11.43;;
54919;SDS011;63804;53.120;8.764;2022-11-21T03:01:29;21.20;;;11.55;;
54919;SDS011;63804;53.120;8.764;2022-11-21T03:03:55;20.70;;;12.27;;
54919;SDS011;63804;53.120;8.764;2022-11-21T03:06:21;19.65;;;11.60;;
54919;SDS011;63804;53.120;8.764;2022-11-21T03:08:46;20.85;;;12.20;;
54919;SDS011;63804;53.120;8.764;2022-11-21T03:11:12;20.13;;;11.50;;
54919;SDS011;63804;53.120;8.764;2022-11-21T03:13:38;20.90;;;11.77;;
54919;SDS011;63804;53.120;8.764;2022-11-21T03:16:03;20.77;;;11.98;;
54919;SDS011;63804;53.120;8.764;2022-11-21T03:18:29;19.23;;;12.07;;
54919;SDS011;63804;53.120;8.764;2022-11-21T03:20:56;21.98;;;12.23;;
54919;SDS011;63804;53.120;8.764;2022-11-21T03:23:22;22.55;;;12.25;;
54919;SDS011;63804;53.120;8.764;2022-11-21T03:25:48;22.45;;;12.63;;
54919;SDS011;63804;53.120;8.764;2022-11-21T03:28:13;20.70;;;11.35;;
54919;SDS011;63804;53.120;8.764;2022-11-21T03:30:39;20.98;;;11.68;;
54919;SDS011;63804;53.120;8.764;2022-11-21T03:33:04;21.15;;;11.65;;
54919;SDS011;63804;53.120;8.764;2022-11-21T03:35:30;19.63;;;11.63;;
54919;SDS011;63804;53.120;8.764;2022-11-21T03:37:56;22.27;;;12.23;;
54919;SDS011;63804;53.120;8.764;2022-11-21T03:40:21;22.55;;;12.25;;
54919;SDS011;63804;53.120;8.764;2022-11-21T03:42:47;23.23;;;12.35;;
54919;SDS011;63804;53.120;8.764;2022-11-21T03:45:13;19.98;;;11.68;;
54919;SDS011;63804;53.120;8.764;2022-11-21T03:47:38;21.52;;;12.10;;
54919;SDS011;63804;53.120;8.764;2022-11-21T03:50:05;21.67;;;11.88;;
54919;SDS011;63804;53.120;8.764;2022-11-21T03:52:31;20.70;;;12.48;;
54919;SDS011;63804;53.120;8.764;2022-11-21T03:54:57;23.58;;;12.52;;
54919;SDS011;63804;53.120;8.764;2022-11-21T03:57:23;22.27;;;11.93;;
54919;SDS011;63804;53.120;8.764;2022-11-21T03:59:48;84.00;;;22.75;;
54919;SDS011;63804;53.120;8.764;2022-11-21T04:02:14;34.42;;;17.58;;
54919;SDS011;63804;53.120;8.764;2022-11-21T04:04:40;39.45;;;17.55;;
54919;SDS011;63804;53.120;8.764;2022-11-21T04:07:05;40.90;;;18.13;;
54919;SDS011;63804;53.120;8.764;2022-11-21T04:09:31;28.77;;;14.65;;
54919;SDS011;63804;53.120;8.764;2022-11-21T04:11:57;33.03;;;16.83;;
54919;SDS011;63804;53.120;8.764;2022-11-21T04:14:22;31.20;;;16.13;;
54919;SDS011;63804;53.120;8.764;2022-11-21T04:16:48;47.83;;;16.73;;
54919;SDS011;63804;53.120;8.764;2022-11-21T04:19:14;86.15;;;18.73;;
54919;SDS011;63804;53.120;8.764;2022-11-21T04:21:39;31.38;;;16.30;;
54919;SDS011;63804;53.120;8.764;2022-11-21T04:24:05;35.90;;;16.25;;
54919;SDS011;63804;53.120;8.764;2022-11-21T04:26:31;32.78;;;15.75;;
54919;SDS011;63804;53.120;8.764;2022-11-21T04:29:03;94.68;;;21.52;;
54919;SDS011;63804;53.120;8.764;2022-11-21T04:31:29;48.53;;;18.40;;
54919;SDS011;63804;53.120;8.764;2022-11-21T04:33:55;64.28;;;19.50;;
54919;SDS011;63804;53.120;8.764;2022-11-21T04:36:20;88.57;;;20.55;;
54919;SDS011;63804;53.120;8.764;2022-11-21T04:38:46;67.38;;;20.35;;
54919;SDS011;63804;53.120;8.764;2022-11-21T04:41:11;47.10;;;18.85;;
54919;SDS011;63804;53.120;8.764;2022-11-21T04:43:37;63.30;;;19.42;;
54919;SDS011;63804;53.120;8.764;2022-11-21T04:46:03;50.88;;;19.35;;
54919;SDS011;63804;53.120;8.764;2022-11-21T04:48:28;77.00;;;19.40;;
54919;SDS011;63804;53.120;8.764;2022-11-21T04:50:54;87.78;;;20.48;;
54919;SDS011;63804;53.120;8.764;2022-11-21T04:53:20;69.78;;;18.98;;
54919;SDS011;63804;53.120;8.764;2022-11-21T04:55:45;165.00;;;24.85;;
54919;SDS011;63804;53.120;8.764;2022-11-21T04:58:11;77.75;;;20.00;;
54919;SDS011;63804;53.120;8.764;2022-11-21T05:00:37;114.35;;;22.20;;
54919;SDS011;63804;53.120;8.764;2022-11-21T05:03:03;75.22;;;19.00;;
54919;SDS011;63804;53.120;8.764;2022-11-21T05:05:29;114.57;;;21.25;;
54919;SDS011;63804;53.120;8.764;2022-11-21T05:07:55;192.35;;;25.42;;
54919;SDS011;63804;53.120;8.764;2022-11-21T05:10:21;34.33;;;16.08;;
54919;SDS011;63804;53.120;8.764;2022-11-21T05:12:46;30.42;;;16.55;;
54919;SDS011;63804;53.120;8.764;2022-11-21T05:15:37;59.35;;;18.75;;
54919;SDS011;63804;53.120;8.764;2022-11-21T05:18:03;88.75;;;22.15;;
54919;SDS011;63804;53.120;8.764;2022-11-21T05:20:29;102.57;;;21.38;;
54919;SDS011;63804;53.120;8.764;2022-11-21T05:22:54;95.20;;;20.70;;
54919;SDS011;63804;53.120;8.764;2022-11-21T05:25:20;67.25;;;19.55;;
54919;SDS011;63804;53.120;8.764;2022-11-21T05:27:46;55.63;;;19.27;;
54919;SDS011;63804;53.120;8.764;2022-11-21T05:30:11;68.72;;;20.77;;
54919;SDS011;63804;53.120;8.764;2022-11-21T05:32:37;47.80;;;17.45;;
54919;SDS011;63804;53.120;8.764;2022-11-21T05:35:03;54.10;;;19.63;;
54919;SDS011;63804;53.120;8.764;2022-11-21T05:37:29;89.82;;;20.00;;
54919;SDS011;63804;53.120;8.764;2022-11-21T05:39:55;109.93;;;22.45;;
54919;SDS011;63804;53.120;8.764;2022-11-21T05:42:20;37.75;;;18.30;;
54919;SDS011;63804;53.120;8.764;2022-11-21T05:45:06;31.35;;;18.15;;
54919;SDS011;63804;53.120;8.764;2022-11-21T05:47:32;58.35;;;18.13;;
54919;SDS011;63804;53.120;8.764;2022-11-21T05:49:58;51.63;;;18.25;;
54919;SDS011;63804;53.120;8.764;2022-11-21T05:52:24;55.30;;;19.02;;
54919;SDS011;63804;53.120;8.764;2022-11-21T05:54:49;49.50;;;18.17;;
54919;SDS011;63804;53.120;8.764;2022-11-21T05:57:15;40.92;;;17.38;;
54919;SDS011;63804;53.120;8.764;2022-11-21T05:59:40;40.97;;;17.67;;
54919;SDS011;63804;53.120;8.764;2022-11-21T06:02:06;37.58;;;17.55;;
54919;SDS011;63804;53.120;8.764;2022-11-21T06:04:50;53.30;;;18.73;;
54919;SDS011;63804;53.120;8.764;2022-11-21T06:07:16;37.00;;;16.67;;
54919;SDS011;63804;53.120;8.764;2022-11-21T06:09:41;48.20;;;18.30;;
54919;SDS011;63804;53.120;8.764;2022-11-21T06:12:07;60.60;;;18.73;;
54919;SDS011;63804;53.120;8.764;2022-11-21T06:14:33;69.80;;;19.45;;
54919;SDS011;63804;53.120;8.764;2022-11-21T06:16:58;40.20;;;18.38;;
54919;SDS011;63804;53.120;8.764;2022-11-21T06:19:24;32.05;;;16.63;;
54919;SDS011;63804;53.120;8.764;2022-11-21T06:21:49;33.30;;;15.90;;
54919;SDS011;63804;53.120;8.764;2022-11-21T06:24:15;32.65;;;15.43;;
54919;SDS011;63804;53.120;8.764;2022-11-21T06:26:41;33.22;;;16.30;;
54919;SDS011;63804;53.120;8.764;2022-11-21T06:29:09;27.83;;;15.55;;
54919;SDS011;63804;53.120;8.764;2022-11-21T06:31:35;32.13;;;16.52;;
54919;SDS011;63804;53.120;8.764;2022-11-21T06:34:01;27.83;;;15.95;;
54919;SDS011;63804;53.120;8.764;2022-11-21T06:36:27;25.75;;;14.70;;
54919;SDS011;63804;53.120;8.764;2022-11-21T06:38:53;25.95;;;15.13;;
54919;SDS011;63804;53.120;8.764;2022-11-21T06:41:21;24.60;;;14.68;;
54919;SDS011;63804;53.120;8.764;2022-11-21T06:43:48;25.83;;;14.02;;
54919;SDS011;63804;53.120;8.764;2022-11-21T06:46:14;25.85;;;13.55;;
54919;SDS011;63804;53.120;8.764;2022-11-21T06:48:40;24.55;;;13.80;;
54919;SDS011;63804;53.120;8.764;2022-11-21T06:51:10;24.27;;;13.50;;
54919;SDS011;63804;53.120;8.764;2022-11-21T06:53:39;23.48;;;13.23;;
54919;SDS011;63804;53.120;8.764;2022-11-21T06:56:05;24.60;;;14.10;;
54919;SDS011;63804;53.120;8.764;2022-11-21T06:58:30;24.38;;;14.20;;
54919;SDS011;63804;53.120;8.764;2022-11-21T07:00:56;23.27;;;13.98;;
54919;SDS011;63804;53.120;8.764;2022-11-21T07:03:22;24.08;;;13.70;;
54919;SDS011;63804;53.120;8.764;2022-11-21T07:05:48;25.63;;;14.10;;
54919;SDS011;63804;53.120;8.764;2022-11-21T07:08:14;28.52;;;15.52;;
54919;SDS011;63804;53.120;8.764;2022-11-21T07:10:40;29.70;;;15.50;;
54919;SDS011;63804;53.120;8.764;2022-11-21T07:13:05;32.42;;;16.58;;
54919;SDS011;63804;53.120;8.764;2022-11-21T07:15:48;38.00;;;17.05;;
54919;SDS011;63804;53.120;8.764;2022-11-21T07:18:15;31.15;;;16.67;;
54919;SDS011;63804;53.120;8.764;2022-11-21T07:20:40;40.33;;;19.17;;
54919;SDS011;63804;53.120;8.764;2022-11-21T07:23:06;32.53;;;17.48;;
54919;SDS011;63804;53.120;8.764;2022-11-21T07:25:33;30.27;;;16.55;;
54919;SDS011;63804;53.120;8.764;2022-11-21T07:27:59;29.92;;;15.32;;
54919;SDS011;63804;53.120;8.764;2022-11-21T07:30:26;32.15;;;16.42;;
54919;SDS011;63804;53.120;8.764;2022-11-21T07:32:56;32.92;;;17.02;;
54919;SDS011;63804;53.120;8.764;2022-11-21T07:35:26;32.63;;;16.98;;
54919;SDS011;63804;53.120;8.764;2022-11-21T07:37:52;33.55;;;17.58;;
54919;SDS011;63804;53.120;8.764;2022-11-21T07:40:18;36.25;;;18.42;;
54919;SDS011;63804;53.120;8.764;2022-11-21T07:42:44;40.08;;;20.95;;
54919;SDS011;63804;53.120;8.764;2022-11-21T07:45:10;53.67;;;27.02;;
54919;SDS011;63804;53.120;8.764;2022-11-21T07:47:37;43.90;;;20.67;;
54919;SDS011;63804;53.120;8.764;2022-11-21T07:50:03;30.80;;;15.90;;
54919;SDS011;63804;53.120;8.764;2022-11-21T07:52:30;30.02;;;15.38;;
54919;SDS011;63804;53.120;8.764;2022-11-21T07:54:55;32.15;;;16.33;;
54919;SDS011;63804;53.120;8.764;2022-11-21T07:57:22;32.75;;;17.85;;
54919;SDS011;63804;53.120;8.764;2022-11-21T07:59:48;45.28;;;23.95;;
54919;SDS011;63804;53.120;8.764;2022-11-21T08:04:48;42.85;;;22.67;;
54919;SDS011;63804;53.120;8.764;2022-11-21T08:07:15;46.72;;;22.90;;
54919;SDS011;63804;53.120;8.764;2022-11-21T08:09:42;50.08;;;25.05;;
54919;SDS011;63804;53.120;8.764;2022-11-21T08:12:08;50.17;;;24.77;;
54919;SDS011;63804;53.120;8.764;2022-11-21T08:14:35;37.53;;;20.27;;
54919;SDS011;63804;53.120;8.764;2022-11-21T08:17:01;33.95;;;18.25;;
54919;SDS011;63804;53.120;8.764;2022-11-21T08:19:28;34.40;;;16.98;;
54919;SDS011;63804;53.120;8.764;2022-11-21T08:21:53;36.95;;;19.02;;
54919;SDS011;63804;53.120;8.764;2022-11-21T08:24:19;37.08;;;17.85;;
54919;SDS011;63804;53.120;8.764;2022-11-21T08:26:45;32.42;;;17.83;;
54919;SDS011;63804;53.120;8.764;2022-11-21T08:29:11;35.90;;;17.77;;
54919;SDS011;63804;53.120;8.764;2022-11-21T08:31:39;34.95;;;17.33;;
54919;SDS011;63804;53.120;8.764;2022-11-21T08:34:05;34.47;;;18.15;;
54919;SDS011;63804;53.120;8.764;2022-11-21T08:36:32;38.17;;;17.48;;
54919;SDS011;63804;53.120;8.764;2022-11-21T08:38:58;32.05;;;18.15;;
54919;SDS011;63804;53.120;8.764;2022-11-21T08:41:23;32.63;;;17.73;;
54919;SDS011;63804;53.120;8.764;2022-11-21T08:44:08;29.38;;;17.10;;
54919;SDS011;63804;53.120;8.764;2022-11-21T08:46:34;29.88;;;16.88;;
54919;SDS011;63804;53.120;8.764;2022-11-21T08:49:04;29.23;;;16.33;;
54919;SDS011;63804;53.120;8.764;2022-11-21T08:51:32;32.65;;;17.38;;
54919;SDS011;63804;53.120;8.764;2022-11-21T08:53:58;28.85;;;16.65;;
54919;SDS011;63804;53.120;8.764;2022-11-21T08:56:23;30.45;;;16.77;;
54919;SDS011;63804;53.120;8.764;2022-11-21T08:58:49;33.80;;;17.10;;
54919;SDS011;63804;53.120;8.764;2022-11-21T09:01:15;30.42;;;17.63;;
54919;SDS011;63804;53.120;8.764;2022-11-21T09:03:41;30.25;;;16.83;;
54919;SDS011;63804;53.120;8.764;2022-11-21T09:06:06;33.97;;;17.50;;
54919;SDS011;63804;53.120;8.764;2022-11-21T09:08:32;32.05;;;17.38;;
54919;SDS011;63804;53.120;8.764;2022-11-21T09:10:58;30.15;;;16.42;;
54919;SDS011;63804;53.120;8.764;2022-11-21T09:13:28;35.08;;;18.83;;
54919;SDS011;63804;53.120;8.764;2022-11-21T09:15:53;29.33;;;16.35;;
54919;SDS011;63804;53.120;8.764;2022-11-21T09:18:37;32.63;;;17.20;;
54919;SDS011;63804;53.120;8.764;2022-11-21T09:21:03;31.55;;;17.50;;
54919;SDS011;63804;53.120;8.764;2022-11-21T09:23:29;29.63;;;16.40;;
54919;SDS011;63804;53.120;8.764;2022-11-21T09:25:54;33.22;;;17.80;;
54919;SDS011;63804;53.120;8.764;2022-11-21T09:28:20;28.73;;;15.80;;
54919;SDS011;63804;53.120;8.764;2022-11-21T09:30:46;29.52;;;16.02;;
54919;SDS011;63804;53.120;8.764;2022-11-21T09:33:12;28.83;;;15.43;;
54919;SDS011;63804;53.120;8.764;2022-11-21T09:35:41;28.63;;;15.77;;
54919;SDS011;63804;53.120;8.764;2022-11-21T09:38:07;27.77;;;16.60;;
54919;SDS011;63804;53.120;8.764;2022-11-21T09:40:33;30.10;;;17.13;;
54919;SDS011;63804;53.120;8.764;2022-11-21T09:45:47;30.10;;;16.02;;
54919;SDS011;63804;53.120;8.764;2022-11-21T09:48:16;27.85;;;15.13;;
54919;SDS011;63804;53.120;8.764;2022-11-21T09:51:06;30.30;;;16.80;;
54919;SDS011;63804;53.120;8.764;2022-11-21T09:53:38;30.35;;;16.27;;
54919;SDS011;63804;53.120;8.764;2022-11-21T09:56:30;31.85;;;17.50;;
54919;SDS011;63804;53.120;8.764;2022-11-21T10:01:43;28.80;;;15.52;;
54919;SDS011;63804;53.120;8.764;2022-11-21T10:04:09;25.35;;;15.13;;
54919;SDS011;63804;53.120;8.764;2022-11-21T10:06:36;28.23;;;14.98;;
54919;SDS011;63804;53.120;8.764;2022-11-21T10:11:50;28.02;;;15.02;;
54919;SDS011;63804;53.120;8.764;2022-11-21T10:20:25;27.75;;;15.10;;
54919;SDS011;63804;53.120;8.764;2022-11-21T10:23:24;28.95;;;15.43;;
54919;SDS011;63804;53.120;8.764;2022-11-21T10:28:37;27.00;;;16.00;;
54919;SDS011;63804;53.120;8.764;2022-11-21T10:31:16;26.23;;;15.70;;
54919;SDS011;63804;53.120;8.764;2022-11-21T10:33:43;28.73;;;15.05;;
54919;SDS011;63804;53.120;8.764;2022-11-21T10:36:24;27.65;;;15.90;;
54919;SDS011;63804;53.120;8.764;2022-11-21T10:38:55;27.38;;;16.50;;
54919;SDS011;63804;53.120;8.764;2022-11-21T10:44:03;24.70;;;14.90;;
54919;SDS011;63804;53.120;8.764;2022-11-21T10:46:54;30.02;;;15.70;;
54919;SDS011;63804;53.120;8.764;2022-11-21T10:49:24;27.00;;;15.50;;
54919;SDS011;63804;53.120;8.764;2022-11-21T10:51:55;25.20;;;14.95;;
54919;SDS011;63804;53.120;8.764;2022-11-21T10:54:30;28.02;;;15.43;;
54919;SDS011;63804;53.120;8.764;2022-11-21T10:57:00;26.15;;;14.82;;
54919;SDS011;63804;53.120;8.764;2022-11-21T10:59:37;27.42;;;14.82;;
54919;SDS011;63804;53.120;8.764;2022-11-21T11:04:38;28.00;;;15.48;;
54919;SDS011;63804;53.120;8.764;2022-11-21T11:07:23;25.83;;;14.80;;
54919;SDS011;63804;53.120;8.764;2022-11-21T11:09:51;24.80;;;14.35;;
54919;SDS011;63804;53.120;8.764;2022-11-21T11:12:37;29.23;;;15.13;;
54919;SDS011;63804;53.120;8.764;2022-11-21T11:15:22;28.95;;;15.30;;
54919;SDS011;63804;53.120;8.764;2022-11-21T11:17:56;26.77;;;15.05;;
54919;SDS011;63804;53.120;8.764;2022-11-21T11:20:29;28.40;;;14.65;;
54919;SDS011;63804;53.120;8.764;2022-11-21T11:25:51;23.85;;;13.57;;
54919;SDS011;63804;53.120;8.764;2022-11-21T11:28:19;24.27;;;13.90;;
54919;SDS011;63804;53.120;8.764;2022-11-21T11:30:46;25.83;;;13.68;;
54919;SDS011;63804;53.120;8.764;2022-11-21T11:36:06;22.77;;;12.85;;
54919;SDS011;63804;53.120;8.764;2022-11-21T11:38:34;21.23;;;11.50;;
54919;SDS011;63804;53.120;8.764;2022-11-21T11:41:00;23.38;;;12.10;;
54919;SDS011;63804;53.120;8.764;2022-11-21T11:49:13;20.52;;;11.48;;
54919;SDS011;63804;53.120;8.764;2022-11-21T11:51:47;19.52;;;11.43;;
54919;SDS011;63804;53.120;8.764;2022-11-21T11:54:18;26.52;;;12.85;;
54919;SDS011;63804;53.120;8.764;2022-11-21T11:56:47;27.25;;;12.43;;
54919;SDS011;63804;53.120;8.764;2022-11-21T11:59:20;20.58;;;11.05;;
54919;SDS011;63804;53.120;8.764;2022-11-21T12:02:13;22.02;;;12.05;;
54919;SDS011;63804;53.120;8.764;2022-11-21T12:04:44;20.20;;;11.02;;
54919;SDS011;63804;53.120;8.764;2022-11-21T12:07:16;20.20;;;10.52;;
54919;SDS011;63804;53.120;8.764;2022-11-21T12:09:51;20.08;;;10.77;;
54919;SDS011;63804;53.120;8.764;2022-11-21T12:23:15;21.55;;;11.00;;
54919;SDS011;63804;53.120;8.764;2022-11-21T12:26:07;18.63;;;9.57;;
54919;SDS011;63804;53.120;8.764;2022-11-21T12:31:44;17.52;;;9.77;;
54919;SDS011;63804;53.120;8.764;2022-11-21T12:45:44;18.45;;;9.35;;
54919;SDS011;63804;53.120;8.764;2022-11-21T12:57:12;17.73;;;9.43;;
54919;SDS011;63804;53.120;8.764;2022-11-21T13:05:39;23.67;;;12.10;;
54919;SDS011;63804;53.120;8.764;2022-11-21T13:08:10;25.50;;;12.98;;
54919;SDS011;63804;53.120;8.764;2022-11-21T13:10:41;33.58;;;17.08;;
54919;SDS011;63804;53.120;8.764;2022-11-21T13:13:29;30.90;;;15.45;;
54919;SDS011;63804;53.120;8.764;2022-11-21T13:16:32;26.38;;;13.45;;
54919;SDS011;63804;53.120;8.764;2022-11-21T13:19:22;23.17;;;11.73;;
54919;SDS011;63804;53.120;8.764;2022-11-21T13:21:51;21.67;;;11.88;;
54919;SDS011;63804;53.120;8.764;2022-11-21T13:32:38;18.15;;;9.60;;
54919;SDS011;63804;53.120;8.764;2022-11-21T13:45:48;20.02;;;10.98;;
54919;SDS011;63804;53.120;8.764;2022-11-21T13:51:35;20.08;;;10.05;;
54919;SDS011;63804;53.120;8.764;2022-11-21T14:11:47;22.02;;;11.00;;
54919;SDS011;63804;53.120;8.764;2022-11-21T14:20:13;15.93;;;8.88;;
54919;SDS011;63804;53.120;8.764;2022-11-21T14:22:52;17.73;;;9.45;;
54919;SDS011;63804;53.120;8.764;2022-11-21T14:25:19;19.15;;;10.25;;
54919;SDS011;63804;53.120;8.764;2022-11-21T14:27:48;19.38;;;10.50;;
54919;SDS011;63804;53.120;8.764;2022-11-21T14:30:27;21.15;;;11.20;;
54919;SDS011;63804;53.120;8.764;2022-11-21T14:33:22;23.42;;;12.07;;
54919;SDS011;63804;53.120;8.764;2022-11-21T14:35:54;22.27;;;11.65;;
54919;SDS011;63804;53.120;8.764;2022-11-21T14:38:22;22.55;;;12.07;;
54919;SDS011;63804;53.120;8.764;2022-11-21T14:40:48;24.17;;;13.10;;
54919;SDS011;63804;53.120;8.764;2022-11-21T14:43:31;24.08;;;12.95;;
54919;SDS011;63804;53.120;8.764;2022-11-21T14:46:03;23.33;;;12.40;;
54919;SDS011;63804;53.120;8.764;2022-11-21T14:48:29;26.23;;;14.63;;
54919;SDS011;63804;53.120;8.764;2022-11-21T14:50:56;22.42;;;12.90;;
54919;SDS011;63804;53.120;8.764;2022-11-21T14:53:24;26.45;;;16.02;;
54919;SDS011;63804;53.120;8.764;2022-11-21T14:55:50;23.92;;;14.10;;
54919;SDS011;63804;53.120;8.764;2022-11-21T14:58:16;23.65;;;13.48;;
54919;SDS011;63804;53.120;8.764;2022-11-21T15:01:04;26.77;;;14.07;;
54919;SDS011;63804;53.120;8.764;2022-11-21T15:03:32;21.42;;;12.48;;
54919;SDS011;63804;53.120;8.764;2022-11-21T15:06:08;24.45;;;13.38;;
54919;SDS011;63804;53.120;8.764;2022-11-21T15:08:35;23.98;;;14.05;;
54919;SDS011;63804;53.120;8.764;2022-11-21T15:11:03;22.63;;;13.05;;
54919;SDS011;63804;53.120;8.764;2022-11-21T15:13:29;24.75;;;13.50;;
54919;SDS011;63804;53.120;8.764;2022-11-21T15:16:00;24.20;;;13.27;;
54919;SDS011;63804;53.120;8.764;2022-11-21T15:18:28;22.45;;;12.98;;
54919;SDS011;63804;53.120;8.764;2022-11-21T15:20:57;23.80;;;12.77;;
54919;SDS011;63804;53.120;8.764;2022-11-21T15:25:54;22.98;;;13.05;;
54919;SDS011;63804;53.120;8.764;2022-11-21T15:28:20;23.45;;;13.32;;
54919;SDS011;63804;53.120;8.764;2022-11-21T15:30:46;22.40;;;12.43;;
54919;SDS011;63804;53.120;8.764;2022-11-21T15:33:20;23.63;;;13.85;;
54919;SDS011;63804;53.120;8.764;2022-11-21T15:38:16;25.15;;;13.25;;
54919;SDS011;63804;53.120;8.764;2022-11-21T15:41:22;23.15;;;12.95;;
54919;SDS011;63804;53.120;8.764;2022-11-21T15:43:50;22.80;;;12.57;;
54919;SDS011;63804;53.120;8.764;2022-11-21T15:46:30;21.85;;;12.75;;
54919;SDS011;63804;53.120;8.764;2022-11-21T15:48:58;22.10;;;12.13;;
54919;SDS011;63804;53.120;8.764;2022-11-21T15:54:01;23.38;;;13.25;;
54919;SDS011;63804;53.120;8.764;2022-11-21T15:56:28;26.85;;;13.18;;
54919;SDS011;63804;53.120;8.764;2022-11-21T15:58:54;26.75;;;13.95;;
54919;SDS011;63804;53.120;8.764;2022-11-21T16:01:21;23.38;;;12.93;;
54919;SDS011;63804;53.120;8.764;2022-11-21T16:03:49;26.55;;;13.60;;
54919;SDS011;63804;53.120;8.764;2022-11-21T16:06:21;25.17;;;12.77;;
54919;SDS011;63804;53.120;8.764;2022-11-21T16:08:47;23.02;;;12.75;;
54919;SDS011;63804;53.120;8.764;2022-11-21T16:11:32;22.95;;;12.90;;
54919;SDS011;63804;53.120;8.764;2022-11-21T16:14:02;24.15;;;13.43;;
54919;SDS011;63804;53.120;8.764;2022-11-21T16:16:30;25.33;;;13.70;;
54919;SDS011;63804;53.120;8.764;2022-11-21T16:21:28;24.45;;;13.35;;
54919;SDS011;63804;53.120;8.764;2022-11-21T16:24:00;24.88;;;14.13;;
54919;SDS011;63804;53.120;8.764;2022-11-21T16:26:26;22.67;;;13.25;;
54919;SDS011;63804;53.120;8.764;2022-11-21T16:28:53;25.10;;;14.27;;
54919;SDS011;63804;53.120;8.764;2022-11-21T16:31:21;24.73;;;13.27;;
54919;SDS011;63804;53.120;8.764;2022-11-21T16:33:48;23.23;;;13.02;;
54919;SDS011;63804;53.120;8.764;2022-11-21T16:36:24;22.70;;;12.52;;
54919;SDS011;63804;53.120;8.764;2022-11-21T16:38:51;22.15;;;12.75;;
54919;SDS011;63804;53.120;8.764;2022-11-21T16:41:17;24.65;;;13.32;;
54919;SDS011;63804;53.120;8.764;2022-11-21T16:43:44;24.20;;;12.75;;
54919;SDS011;63804;53.120;8.764;2022-11-21T16:46:12;22.83;;;12.82;;
54919;SDS011;63804;53.120;8.764;2022-11-21T16:48:38;24.83;;;13.63;;
54919;SDS011;63804;53.120;8.764;2022-11-21T16:53:59;25.00;;;13.18;;
54919;SDS011;63804;53.120;8.764;2022-11-21T16:56:25;24.90;;;13.63;;
54919;SDS011;63804;53.120;8.764;2022-11-21T16:58:51;22.00;;;12.70;;